createdAt,value
2023-05-01T00:00:00.477Z,68.78
2023-05-01T00:01:00.477Z,68.96
2023-05-01T00:02:00.407Z,68.54
2023-05-01T00:03:00.596Z,68.44
2023-05-01T00:04:00.658Z,68.03
2023-05-01T00:05:00.490Z,68.34
2023-05-01T00:06:00.425Z,68.65
2023-05-01T00:07:00.338Z,68.78
2023-05-01T00:08:00.345Z,68.88
2023-05-01T00:09:00.343Z,68.88
2023-05-01T00:10:00.342Z,68.88
2023-05-01T00:11:00.353Z,69.09
2023-05-01T00:12:00.313Z,69.61
2023-05-01T00:13:00.294Z,69.40
2023-05-01T00:14:00.297Z,69.82
2023-05-01T00:15:00.274Z,70.23
2023-05-01T00:16:00.344Z,70.54
2023-05-01T00:17:00.332Z,70.57
2023-05-01T00:18:00.323Z,70.78
2023-05-01T00:19:00.238Z,70.78
2023-05-01T00:20:00.265Z,70.98
2023-05-01T00:21:00.280Z,70.88
2023-05-01T00:22:00.221Z,71.09
2023-05-01T00:23:00.188Z,71.09
2023-05-01T00:24:00.208Z,71.19
2023-05-01T00:25:00.178Z,70.98
2023-05-01T00:26:00.228Z,70.88
2023-05-01T00:27:00.156Z,71.09
2023-05-01T00:28:00.149Z,70.78
2023-05-01T00:29:00.153Z,70.88
2023-05-01T00:30:00.120Z,70.98
2023-05-01T00:31:00.190Z,71.19
2023-05-01T00:32:00.177Z,72.02
2023-05-01T00:33:00.143Z,72.26
2023-05-01T00:34:00.124Z,72.88
2023-05-01T00:35:00.074Z,72.26
2023-05-01T00:36:00.129Z,71.84
2023-05-01T00:37:00.056Z,71.64
2023-05-01T00:38:00.087Z,71.81
2023-05-01T00:39:00.081Z,71.19
2023-05-01T00:40:00.034Z,71.30
2023-05-01T00:41:00.057Z,71.40
2023-05-01T00:42:00.006Z,71.71
2023-05-01T00:42:59.982Z,71.92
2023-05-01T00:44:00.133Z,71.71
2023-05-01T00:44:59.967Z,72.12
2023-05-01T00:46:00.086Z,71.92
2023-05-01T00:46:59.954Z,72.22
2023-05-01T00:48:00.017Z,71.81
2023-05-01T00:48:59.986Z,71.50
2023-05-01T00:49:59.918Z,70.88
2023-05-01T00:50:59.937Z,70.33
2023-05-01T00:51:59.907Z,70.12
2023-05-01T00:52:59.900Z,69.37
2023-05-01T00:53:59.901Z,69.17
2023-05-01T00:54:59.905Z,68.85
2023-05-01T00:55:59.896Z,68.85
2023-05-01T00:56:59.912Z,68.75
2023-05-01T00:57:59.841Z,69.37
2023-05-01T00:58:59.897Z,68.96
2023-05-01T00:59:59.841Z,68.85
2023-05-01T01:00:59.952Z,68.51
2023-05-01T01:01:59.840Z,68.51
2023-05-01T01:02:59.826Z,68.72
2023-05-01T01:03:59.834Z,68.41
2023-05-01T01:04:59.825Z,68.93
2023-05-01T01:05:59.788Z,68.21
2023-05-01T01:06:59.793Z,68.41
2023-05-01T01:07:59.756Z,68.21
2023-05-01T01:08:59.735Z,68.41
2023-05-01T01:09:59.755Z,69.03
2023-05-01T01:10:59.718Z,69.44
2023-05-01T01:11:59.763Z,69.13
2023-05-01T01:12:59.697Z,68.93
2023-05-01T01:13:59.705Z,69.03
2023-05-01T01:14:59.740Z,68.85
2023-05-01T01:15:59.695Z,68.93
2023-05-01T01:16:59.713Z,69.17
2023-05-01T01:17:59.667Z,69.89
2023-05-01T01:18:59.652Z,69.58
2023-05-01T01:19:59.620Z,70.51
2023-05-01T01:20:59.648Z,71.02
2023-05-01T01:21:59.633Z,69.58
2023-05-01T01:22:59.582Z,69.27
2023-05-01T01:23:59.592Z,69.06
2023-05-01T01:24:59.587Z,69.17
2023-05-01T01:25:59.601Z,69.58
2023-05-01T01:26:59.600Z,69.17
2023-05-01T01:27:59.548Z,69.27
2023-05-01T01:28:59.572Z,69.27
2023-05-01T01:29:59.515Z,69.17
2023-05-01T01:30:59.586Z,69.27
2023-05-01T01:31:59.536Z,69.17
2023-05-01T01:32:59.532Z,69.27
2023-05-01T01:33:59.535Z,70.54
2023-05-01T01:34:59.470Z,70.23
2023-05-01T01:35:59.458Z,71.37
2023-05-01T01:36:59.502Z,71.37
2023-05-01T01:37:59.453Z,71.78
2023-05-01T01:38:59.473Z,72.74
2023-05-01T01:39:59.452Z,73.05
2023-05-01T01:40:59.458Z,72.43
2023-05-01T01:41:59.394Z,72.78
2023-05-01T01:42:59.396Z,72.57
2023-05-01T01:43:59.407Z,72.67
2023-05-01T01:44:59.369Z,73.12
2023-05-01T01:45:59.453Z,72.91
2023-05-01T01:46:59.359Z,74.36
2023-05-01T01:47:59.404Z,75.84
2023-05-01T01:48:59.375Z,76.98
2023-05-01T01:49:59.331Z,79.47
2023-05-01T01:50:59.365Z,80.19
2023-05-01T01:51:59.336Z,78.85
2023-05-01T01:52:59.301Z,79.91
2023-05-01T01:53:59.312Z,79.09
2023-05-01T01:54:59.273Z,80.43
2023-05-01T01:55:59.986Z,80.26
2023-05-01T01:56:59.250Z,82.65
2023-05-01T01:57:59.250Z,81.30
2023-05-01T01:58:59.267Z,80.30
2023-05-01T01:59:59.241Z,81.13
2023-05-01T02:00:59.257Z,80.92
2023-05-01T02:01:59.239Z,81.75
2023-05-01T02:02:59.325Z,80.92
2023-05-01T02:03:59.244Z,81.96
2023-05-01T02:04:59.211Z,82.62
2023-05-01T02:05:59.209Z,82.93
2023-05-01T02:06:59.155Z,82.93
2023-05-01T02:07:59.149Z,82.51
2023-05-01T02:08:59.166Z,83.03
2023-05-01T02:09:59.283Z,82.31
2023-05-01T02:11:00.935Z,82.10
2023-05-01T02:11:59.149Z,82.72
2023-05-01T02:12:59.109Z,82.45
2023-05-01T02:13:59.098Z,83.90
2023-05-01T02:14:59.063Z,83.03
2023-05-01T02:15:59.142Z,81.68
2023-05-01T02:16:59.067Z,81.48
2023-05-01T02:17:59.120Z,82.10
2023-05-01T02:18:59.050Z,80.51
2023-05-01T02:19:59.035Z,80.30
2023-05-01T02:20:59.096Z,79.58
2023-05-01T02:21:59.001Z,79.78
2023-05-01T02:22:59.011Z,79.68
2023-05-01T02:23:59.014Z,79.27
2023-05-01T02:24:58.979Z,80.40
2023-05-01T02:25:58.999Z,78.96
2023-05-01T02:26:58.949Z,77.98
2023-05-01T02:27:58.947Z,77.67
2023-05-01T02:28:58.947Z,77.47
2023-05-01T02:29:59.165Z,76.61
2023-05-01T02:30:58.916Z,76.40
2023-05-01T02:31:59.114Z,76.36
2023-05-01T02:32:58.941Z,75.74
2023-05-01T02:33:58.894Z,76.05
2023-05-01T02:34:58.886Z,75.32
2023-05-01T02:35:58.862Z,74.91
2023-05-01T02:36:58.883Z,76.05
2023-05-01T02:37:58.852Z,75.32
2023-05-01T02:38:58.851Z,75.22
2023-05-01T02:39:59.064Z,75.12
2023-05-01T02:40:58.858Z,75.02
2023-05-01T02:41:58.823Z,75.53
2023-05-01T02:42:58.819Z,75.12
2023-05-01T02:43:58.880Z,75.74
2023-05-01T02:44:58.779Z,75.43
2023-05-01T02:45:58.796Z,75.84
2023-05-01T02:46:58.838Z,76.50
2023-05-01T02:47:58.822Z,76.09
2023-05-01T02:48:58.760Z,76.19
2023-05-01T02:49:59.022Z,75.88
2023-05-01T02:50:58.868Z,75.53
2023-05-01T02:51:58.738Z,75.53
2023-05-01T02:52:58.704Z,75.22
2023-05-01T02:53:58.692Z,75.43
2023-05-01T02:54:58.668Z,75.95
2023-05-01T02:55:58.700Z,76.19
2023-05-01T02:56:58.672Z,76.81
2023-05-01T02:57:58.659Z,76.40
2023-05-01T02:58:58.664Z,76.40
2023-05-01T02:59:58.667Z,76.50
2023-05-01T03:00:58.711Z,75.98
2023-05-01T03:01:58.653Z,75.98
2023-05-01T03:02:58.668Z,75.98
2023-05-01T03:03:58.682Z,75.98
2023-05-01T03:04:58.614Z,76.29
2023-05-01T03:05:58.628Z,76.50
2023-05-01T03:06:58.597Z,76.40
2023-05-01T03:07:58.533Z,76.61
2023-05-01T03:08:58.566Z,76.40
2023-05-01T03:09:58.655Z,75.88
2023-05-01T03:10:58.543Z,75.67
2023-05-01T03:11:58.508Z,74.91
2023-05-01T03:12:58.498Z,74.29
2023-05-01T03:13:58.501Z,74.50
2023-05-01T03:14:58.447Z,73.64
2023-05-01T03:15:58.532Z,73.74
2023-05-01T03:16:58.406Z,73.54
2023-05-01T03:17:58.435Z,73.43
2023-05-01T03:18:58.396Z,72.91
2023-05-01T03:19:58.516Z,72.71
2023-05-01T03:20:58.411Z,72.36
2023-05-01T03:21:58.358Z,72.26
2023-05-01T03:22:58.347Z,72.57
2023-05-01T03:23:58.345Z,72.67
2023-05-01T03:24:58.335Z,72.91
2023-05-01T03:25:58.331Z,72.81
2023-05-01T03:26:58.298Z,72.71
2023-05-01T03:27:58.279Z,73.02
2023-05-01T03:28:58.283Z,72.91
2023-05-01T03:29:58.388Z,73.12
2023-05-01T03:30:58.282Z,73.33
2023-05-01T03:31:58.377Z,73.02
2023-05-01T03:32:58.297Z,72.71
2023-05-01T03:33:58.246Z,72.91
2023-05-01T03:34:58.270Z,72.50
2023-05-01T03:35:58.248Z,72.50
2023-05-01T03:36:58.221Z,72.47
2023-05-01T03:37:58.214Z,72.57
2023-05-01T03:38:58.186Z,72.81
2023-05-01T03:39:58.353Z,72.26
2023-05-01T03:40:58.167Z,72.57
2023-05-01T03:41:58.165Z,72.16
2023-05-01T03:42:58.136Z,72.16
2023-05-01T03:43:58.138Z,72.47
2023-05-01T03:44:58.136Z,72.26
2023-05-01T03:45:58.189Z,72.26
2023-05-01T03:46:58.126Z,71.84
2023-05-01T03:47:58.133Z,72.26
2023-05-01T03:48:58.083Z,72.26
2023-05-01T03:49:58.325Z,72.36
2023-05-01T03:50:58.136Z,72.26
2023-05-01T03:51:58.037Z,72.05
2023-05-01T03:52:58.049Z,71.64
2023-05-01T03:53:58.040Z,71.64
2023-05-01T03:54:58.036Z,71.43
2023-05-01T03:55:58.015Z,71.22
2023-05-01T03:56:58.015Z,71.22
2023-05-01T03:57:57.981Z,71.09
2023-05-01T03:58:58.001Z,71.33
2023-05-01T03:59:58.175Z,70.98
2023-05-01T04:00:57.986Z,70.78
2023-05-01T04:01:57.988Z,70.98
2023-05-01T04:02:58.198Z,70.78
2023-05-01T04:03:58.046Z,71.19
2023-05-01T04:04:57.915Z,70.67
2023-05-01T04:05:58.015Z,70.57
2023-05-01T04:06:57.920Z,70.37
2023-05-01T04:07:57.925Z,69.82
2023-05-01T04:08:57.895Z,70.03
2023-05-01T04:09:58.006Z,70.03
2023-05-01T04:10:57.877Z,70.12
2023-05-01T04:11:57.870Z,70.47
2023-05-01T04:12:57.836Z,70.57
2023-05-01T04:13:57.885Z,70.47
2023-05-01T04:14:57.824Z,70.57
2023-05-01T04:15:57.946Z,70.67
2023-05-01T04:16:57.814Z,70.37
2023-05-01T04:17:57.801Z,70.03
2023-05-01T04:18:57.806Z,70.23
2023-05-01T04:19:58.186Z,70.03
2023-05-01T04:20:57.780Z,70.12
2023-05-01T04:21:57.752Z,70.33
2023-05-01T04:22:57.741Z,70.23
2023-05-01T04:23:57.758Z,70.23
2023-05-01T04:24:57.729Z,70.03
2023-05-01T04:25:57.741Z,70.03
2023-05-01T04:26:57.701Z,69.61
2023-05-01T04:27:57.701Z,69.82
2023-05-01T04:28:57.672Z,69.82
2023-05-01T04:29:58.110Z,69.51
2023-05-01T04:30:57.729Z,69.30
2023-05-01T04:31:57.823Z,68.88
2023-05-01T04:32:57.650Z,69.37
2023-05-01T04:33:57.637Z,69.27
2023-05-01T04:34:57.946Z,68.75
2023-05-01T04:35:57.648Z,68.85
2023-05-01T04:36:57.592Z,68.75
2023-05-01T04:37:57.597Z,68.54
2023-05-01T04:38:57.605Z,67.90
2023-05-01T04:39:57.821Z,68.21
2023-05-01T04:40:57.615Z,67.90
2023-05-01T04:41:57.578Z,67.48
2023-05-01T04:42:57.542Z,67.55
2023-05-01T04:43:57.547Z,67.35
2023-05-01T04:44:57.518Z,66.83
2023-05-01T04:45:57.710Z,67.11
2023-05-01T04:46:57.563Z,66.91
2023-05-01T04:47:57.532Z,66.39
2023-05-01T04:48:57.537Z,66.05
2023-05-01T04:49:57.678Z,64.99
2023-05-01T04:50:57.445Z,65.06
2023-05-01T04:51:57.481Z,64.00
2023-05-01T04:52:57.428Z,63.69
2023-05-01T04:53:57.458Z,63.79
2023-05-01T04:54:57.416Z,64.34
2023-05-01T04:55:57.423Z,65.16
2023-05-01T04:56:57.414Z,65.40
2023-05-01T04:57:57.370Z,64.47
2023-05-01T04:58:57.376Z,64.78
2023-05-01T04:59:57.827Z,65.16
2023-05-01T05:00:57.372Z,63.62
2023-05-01T05:01:57.514Z,64.24
2023-05-01T05:02:57.429Z,64.75
2023-05-01T05:03:57.469Z,64.75
2023-05-01T05:04:57.341Z,65.37
2023-05-01T05:05:57.396Z,64.96
2023-05-01T05:06:57.315Z,64.86
2023-05-01T05:07:57.301Z,64.93
2023-05-01T05:08:57.296Z,63.90
2023-05-01T05:09:57.519Z,63.69
2023-05-01T05:10:57.571Z,63.07
2023-05-01T05:11:57.229Z,62.66
2023-05-01T05:12:57.217Z,63.49
2023-05-01T05:13:57.231Z,63.18
2023-05-01T05:14:57.200Z,63.07
2023-05-01T05:15:57.251Z,63.07
2023-05-01T05:16:57.212Z,63.35
2023-05-01T05:17:57.267Z,62.95
2023-05-01T05:18:57.173Z,62.09
2023-05-01T05:19:57.305Z,61.76
2023-05-01T05:20:57.226Z,62.24
2023-05-01T05:21:57.145Z,61.52
2023-05-01T05:22:57.124Z,60.70
2023-05-01T05:23:57.137Z,60.60
2023-05-01T05:24:57.146Z,60.36
2023-05-01T05:25:57.277Z,59.95
2023-05-01T05:26:57.094Z,59.82
2023-05-01T05:27:57.093Z,59.28
2023-05-01T05:28:57.082Z,58.46
2023-05-01T05:29:57.162Z,58.56
2023-05-01T05:30:57.065Z,59.31
2023-05-01T05:31:57.131Z,59.03
2023-05-01T05:32:57.047Z,60.57
2023-05-01T05:33:57.074Z,60.36
2023-05-01T05:34:57.017Z,60.39
2023-05-01T05:35:57.003Z,60.98
2023-05-01T05:36:57.027Z,61.08
2023-05-01T05:37:56.975Z,60.88
2023-05-01T05:38:56.974Z,60.13
2023-05-01T05:39:57.147Z,61.57
2023-05-01T05:40:56.930Z,61.64
2023-05-01T05:41:56.946Z,60.31
2023-05-01T05:42:56.925Z,60.25
2023-05-01T05:43:56.914Z,60.22
2023-05-01T05:44:56.952Z,58.35
2023-05-01T05:45:56.922Z,58.25
2023-05-01T05:46:56.930Z,58.86
2023-05-01T05:47:56.952Z,58.63
2023-05-01T05:48:56.902Z,58.94
2023-05-01T05:49:57.088Z,58.53
2023-05-01T05:50:56.843Z,58.91
2023-05-01T05:51:56.868Z,57.79
2023-05-01T05:52:56.805Z,56.76
2023-05-01T05:53:56.846Z,56.94
2023-05-01T05:54:56.797Z,57.45
2023-05-01T05:55:56.808Z,56.20
2023-05-01T05:56:56.804Z,56.58
2023-05-01T05:57:56.767Z,55.97
2023-05-01T05:58:56.769Z,55.15
2023-05-01T05:59:56.960Z,55.36
2023-05-01T06:00:56.750Z,54.85
2023-05-01T06:01:56.752Z,54.87
2023-05-01T06:02:56.856Z,55.08
2023-05-01T06:03:56.778Z,54.67
2023-05-01T06:04:56.721Z,55.26
2023-05-01T06:05:56.813Z,54.33
2023-05-01T06:06:56.815Z,54.87
2023-05-01T06:07:56.681Z,55.28
2023-05-01T06:08:56.670Z,55.46
2023-05-01T06:09:56.871Z,56.27
2023-05-01T06:10:56.651Z,56.38
2023-05-01T06:11:56.631Z,56.17
2023-05-01T06:13:03.783Z,56.20
2023-05-01T06:13:56.622Z,56.51
2023-05-01T06:14:56.585Z,56.79
2023-05-01T06:15:56.589Z,56.38
2023-05-01T06:16:56.596Z,55.26
2023-05-01T06:17:56.625Z,56.66
2023-05-01T06:18:56.590Z,56.76
2023-05-01T06:19:56.791Z,55.94
2023-05-01T06:20:56.583Z,55.63
2023-05-01T06:21:56.563Z,54.90
2023-05-01T06:22:56.508Z,53.98
2023-05-01T06:23:56.512Z,55.18
2023-05-01T06:24:56.483Z,54.67
2023-05-01T06:25:56.480Z,54.67
2023-05-01T06:26:56.479Z,54.26
2023-05-01T06:27:56.468Z,54.67
2023-05-01T06:28:56.456Z,54.97
2023-05-01T06:29:56.716Z,55.02
2023-05-01T06:30:56.462Z,53.88
2023-05-01T06:31:56.473Z,52.55
2023-05-01T06:32:56.472Z,52.55
2023-05-01T06:33:56.421Z,52.12
2023-05-01T06:34:56.384Z,52.10
2023-05-01T06:35:56.377Z,51.97
2023-05-01T06:36:56.411Z,50.55
2023-05-01T06:37:56.353Z,51.56
2023-05-01T06:38:56.368Z,51.75
2023-05-01T06:39:56.523Z,50.34
2023-05-01T06:40:56.312Z,51.54
2023-05-01T06:41:56.350Z,49.40
2023-05-01T06:42:56.287Z,49.71
2023-05-01T06:43:56.291Z,50.22
2023-05-01T06:44:56.262Z,49.79
2023-05-01T06:45:56.260Z,49.99
2023-05-01T06:46:56.312Z,49.76
2023-05-01T06:47:56.332Z,49.13
2023-05-01T06:48:56.236Z,49.66
2023-05-01T06:49:56.438Z,50.48
2023-05-01T06:50:56.211Z,50.25
2023-05-01T06:51:56.227Z,49.95
2023-05-01T06:52:56.219Z,49.52
2023-05-01T06:53:56.192Z,49.41
2023-05-01T06:54:56.171Z,50.43
2023-05-01T06:55:56.186Z,50.63
2023-05-01T06:56:56.217Z,49.59
2023-05-01T06:57:56.134Z,49.39
2023-05-01T06:58:56.202Z,48.78
2023-05-01T06:59:56.369Z,48.86
2023-05-01T07:00:56.140Z,48.54
2023-05-01T07:01:56.146Z,49.19
2023-05-01T07:02:56.507Z,49.11
2023-05-01T07:03:56.080Z,50.68
2023-05-01T07:04:56.059Z,51.31
2023-05-01T07:05:56.076Z,52.30
2023-05-01T07:06:56.056Z,52.10
2023-05-01T07:08:01.218Z,51.01
2023-05-01T07:08:56.028Z,50.60
2023-05-01T07:09:56.197Z,50.93
2023-05-01T07:10:56.005Z,51.69
2023-05-01T07:11:56.023Z,52.81
2023-05-01T07:12:55.973Z,51.87
2023-05-01T07:13:55.988Z,51.69
2023-05-01T07:14:55.956Z,52.40
2023-05-01T07:15:56.024Z,53.24
2023-05-01T07:16:56.021Z,52.91
2023-05-01T07:17:55.988Z,52.61
2023-05-01T07:18:55.929Z,52.08
2023-05-01T07:19:56.192Z,51.77
2023-05-01T07:20:55.900Z,53.06
2023-05-01T07:21:55.916Z,51.75
2023-05-01T07:22:55.899Z,51.64
2023-05-01T07:23:55.887Z,52.73
2023-05-01T07:24:55.876Z,51.01
2023-05-01T07:25:55.859Z,50.50
2023-05-01T07:26:55.838Z,50.56
2023-05-01T07:27:55.860Z,50.23
2023-05-01T07:28:55.835Z,48.99
2023-05-01T07:29:56.077Z,48.33
2023-05-01T07:30:55.786Z,49.30
2023-05-01T07:31:55.999Z,46.77
2023-05-01T07:32:55.834Z,47.13
2023-05-01T07:33:55.825Z,45.89
2023-05-01T07:34:55.739Z,46.50
2023-05-01T07:35:55.760Z,46.60
2023-05-01T07:36:55.974Z,45.29
2023-05-01T07:37:55.813Z,45.79
2023-05-01T07:38:55.740Z,44.94
2023-05-01T07:39:55.949Z,46.45
2023-05-01T07:40:55.685Z,45.06
2023-05-01T07:41:55.684Z,45.31
2023-05-01T07:42:55.703Z,46.01
2023-05-01T07:43:55.691Z,47.63
2023-05-01T07:44:55.664Z,46.54
2023-05-01T07:45:55.666Z,46.80
2023-05-01T07:46:55.642Z,45.29
2023-05-01T07:47:55.723Z,46.42
2023-05-01T07:48:55.610Z,46.54
2023-05-01T07:49:55.914Z,45.98
2023-05-01T07:50:55.609Z,47.11
2023-05-01T07:51:55.597Z,47.06
2023-05-01T07:52:55.554Z,49.37
2023-05-01T07:53:55.578Z,48.59
2023-05-01T07:54:55.532Z,47.88
2023-05-01T07:55:55.569Z,46.95
2023-05-01T07:56:55.726Z,47.66
2023-05-01T07:57:55.523Z,45.91
2023-05-01T07:58:55.511Z,45.87
2023-05-01T07:59:55.773Z,45.87
2023-05-01T08:00:56.955Z,46.25
2023-05-01T08:01:55.605Z,45.75
2023-05-01T08:02:55.636Z,46.05
2023-05-01T08:03:55.549Z,45.45
2023-05-01T08:04:55.605Z,44.84
2023-05-01T08:05:56.050Z,45.04
2023-05-01T08:06:55.565Z,45.57
2023-05-01T08:07:55.510Z,46.23
2023-05-01T08:08:55.426Z,45.68
2023-05-01T08:09:57.617Z,44.95
2023-05-01T08:10:55.416Z,44.75
2023-05-01T08:11:55.396Z,44.15
2023-05-01T08:12:55.389Z,44.05
2023-05-01T08:13:55.411Z,44.93
2023-05-01T08:14:55.368Z,43.60
2023-05-01T08:15:55.390Z,45.27
2023-05-01T08:16:55.571Z,41.37
2023-05-01T08:17:55.471Z,42.90
2023-05-01T08:18:55.320Z,41.31
2023-05-01T08:19:55.490Z,41.93
2023-05-01T08:20:55.284Z,42.54
2023-05-01T08:21:55.329Z,42.52
2023-05-01T08:22:55.309Z,42.82
2023-05-01T08:23:55.313Z,42.27
2023-05-01T08:24:55.251Z,43.52
2023-05-01T08:25:55.255Z,41.59
2023-05-01T08:26:55.272Z,41.65
2023-05-01T08:27:55.252Z,39.64
2023-05-01T08:28:55.222Z,40.75
2023-05-01T08:29:55.546Z,40.91
2023-05-01T08:30:55.204Z,40.91
2023-05-01T08:31:55.306Z,40.89
2023-05-01T08:32:55.218Z,41.41
2023-05-01T08:33:55.162Z,39.30
2023-05-01T08:34:55.154Z,40.08
2023-05-01T08:35:55.137Z,40.35
2023-05-01T08:36:55.147Z,40.65
2023-05-01T08:37:55.114Z,39.93
2023-05-01T08:38:55.113Z,39.16
2023-05-01T08:39:55.351Z,39.54
2023-05-01T08:40:55.133Z,39.51
2023-05-01T08:41:55.971Z,38.59
2023-05-01T08:42:55.150Z,38.79
2023-05-01T08:43:55.061Z,39.39
2023-05-01T08:44:55.059Z,39.03
2023-05-01T08:45:55.101Z,39.75
2023-05-01T08:46:55.095Z,40.63
2023-05-01T08:47:55.122Z,39.62
2023-05-01T08:48:55.295Z,39.23
2023-05-01T08:49:55.223Z,40.23
2023-05-01T08:50:55.099Z,40.13
2023-05-01T08:51:55.005Z,39.61
2023-05-01T08:52:54.950Z,41.27
2023-05-01T08:53:55.308Z,37.95
2023-05-01T08:54:55.037Z,39.55
2023-05-01T08:55:54.951Z,38.53
2023-05-01T08:56:54.965Z,38.83
2023-05-01T08:57:55.476Z,38.31
2023-05-01T08:58:54.975Z,36.40
2023-05-01T08:59:55.171Z,37.21
2023-05-01T09:00:54.894Z,37.93
2023-05-01T09:01:55.047Z,36.53
2023-05-01T09:02:54.995Z,38.89
2023-05-01T09:03:54.915Z,36.49
2023-05-01T09:04:54.874Z,35.69
2023-05-01T09:05:55.034Z,37.90
2023-05-01T09:06:55.092Z,37.27
2023-05-01T09:07:54.836Z,37.63
2023-05-01T09:08:55.515Z,38.09
2023-05-01T09:09:55.036Z,39.55
2023-05-01T09:10:55.037Z,38.31
2023-05-01T09:11:55.594Z,37.81
2023-05-01T09:12:55.532Z,38.09
2023-05-01T09:13:54.780Z,37.85
2023-05-01T09:14:54.792Z,40.79
2023-05-01T09:15:54.846Z,38.60
2023-05-01T09:16:54.843Z,40.79
2023-05-01T09:17:55.094Z,40.05
2023-05-01T09:18:54.710Z,37.81
2023-05-01T09:19:54.888Z,38.38
2023-05-01T09:20:54.709Z,35.94
2023-05-01T09:21:54.783Z,37.19
2023-05-01T09:22:55.189Z,36.65
2023-05-01T09:24:01.491Z,35.22
2023-05-01T09:24:54.683Z,33.90
2023-05-01T09:25:54.719Z,34.69
2023-05-01T09:26:54.691Z,35.42
2023-05-01T09:27:54.617Z,36.79
2023-05-01T09:28:54.630Z,37.27
2023-05-01T09:29:54.922Z,36.79
2023-05-01T09:30:54.591Z,36.51
2023-05-01T09:31:54.644Z,37.73
2023-05-01T09:32:54.596Z,40.00
2023-05-01T09:33:54.576Z,37.38
2023-05-01T09:34:54.539Z,38.04
2023-05-01T09:35:54.577Z,38.67
2023-05-01T09:36:54.554Z,34.50
2023-05-01T09:37:54.540Z,36.57
2023-05-01T09:38:54.517Z,34.89
2023-05-01T09:39:54.668Z,34.71
2023-05-01T09:40:54.565Z,37.21
2023-05-01T09:41:54.535Z,37.40
2023-05-01T09:42:54.461Z,36.59
2023-05-01T09:43:54.472Z,37.34
2023-05-01T09:44:54.445Z,38.51
2023-05-01T09:45:54.565Z,36.88
2023-05-01T09:46:54.592Z,37.51
2023-05-01T09:47:54.530Z,34.78
2023-05-01T09:48:54.444Z,33.63
2023-05-01T09:49:54.598Z,33.29
2023-05-01T09:50:54.438Z,31.09
2023-05-01T09:51:54.405Z,32.14
2023-05-01T09:52:54.939Z,31.44
2023-05-01T09:53:54.377Z,31.97
2023-05-01T09:54:54.373Z,30.93
2023-05-01T09:55:54.341Z,29.58
2023-05-01T09:56:54.352Z,31.67
2023-05-01T09:57:54.331Z,30.97
2023-05-01T09:58:54.338Z,34.10
2023-05-01T09:59:54.483Z,29.92
2023-05-01T10:00:54.332Z,29.46
2023-05-01T10:01:54.349Z,31.10
2023-05-01T10:02:54.449Z,31.56
2023-05-01T10:03:54.421Z,30.53
2023-05-01T10:04:54.295Z,30.69
2023-05-01T10:05:54.251Z,34.34
2023-05-01T10:06:54.395Z,35.26
2023-05-01T10:07:54.319Z,33.93
2023-05-01T10:08:54.229Z,33.50
2023-05-01T10:09:54.259Z,34.30
2023-05-01T10:10:54.241Z,33.65
2023-05-01T10:11:54.319Z,31.23
2023-05-01T10:12:54.194Z,29.14
2023-05-01T10:13:54.194Z,29.03
2023-05-01T10:14:54.179Z,29.36
2023-05-01T10:15:54.157Z,33.40
2023-05-01T10:16:54.245Z,33.76
2023-05-01T10:17:54.783Z,33.70
2023-05-01T10:18:54.140Z,35.28
2023-05-01T10:19:54.432Z,34.98
2023-05-01T10:20:54.156Z,34.61
2023-05-01T10:21:54.153Z,36.06
2023-05-01T10:22:54.127Z,37.53
2023-05-01T10:23:54.132Z,38.55
2023-05-01T10:24:54.088Z,42.16
2023-05-01T10:25:54.105Z,37.13
2023-05-01T10:26:54.122Z,38.83
2023-05-01T10:27:54.073Z,40.25
2023-05-01T10:28:54.052Z,42.43
2023-05-01T10:29:54.116Z,37.33
2023-05-01T10:30:54.073Z,41.43
2023-05-01T10:31:54.194Z,37.03
2023-05-01T10:32:54.101Z,38.23
2023-05-01T10:33:54.057Z,38.35
2023-05-01T10:34:54.108Z,38.25
2023-05-01T10:35:54.031Z,40.39
2023-05-01T10:36:54.019Z,44.50
2023-05-01T10:37:53.960Z,44.40
2023-05-01T10:38:54.048Z,44.30
2023-05-01T10:39:53.958Z,44.62
2023-05-01T10:40:53.952Z,44.12
2023-05-01T10:41:53.945Z,44.72
2023-05-01T10:42:54.143Z,45.92
2023-05-01T10:43:54.531Z,44.42
2023-05-01T10:44:54.070Z,42.11
2023-05-01T10:45:53.933Z,43.42
2023-05-01T10:46:54.022Z,43.30
2023-05-01T10:47:53.876Z,42.40
2023-05-01T10:48:53.852Z,42.10
2023-05-01T10:49:53.823Z,44.52
2023-05-01T10:50:53.843Z,42.83
2023-05-01T10:51:53.843Z,43.54
2023-05-01T10:52:53.847Z,42.66
2023-05-01T10:53:53.788Z,42.58
2023-05-01T10:54:53.933Z,44.08
2023-05-01T10:55:53.769Z,43.60
2023-05-01T10:56:53.836Z,43.72
2023-05-01T10:57:53.757Z,44.53
2023-05-01T10:58:53.752Z,44.02
2023-05-01T10:59:53.723Z,45.33
2023-05-01T11:00:53.723Z,46.28
2023-05-01T11:01:53.835Z,47.19
2023-05-01T11:02:53.791Z,46.98
2023-05-01T11:03:53.736Z,46.48
2023-05-01T11:04:53.959Z,47.86
2023-05-01T11:05:53.713Z,48.37
2023-05-01T11:06:53.703Z,47.85
2023-05-01T11:07:53.699Z,46.19
2023-05-01T11:08:53.653Z,43.71
2023-05-01T11:09:53.626Z,37.90
2023-05-01T11:10:53.619Z,37.59
2023-05-01T11:11:53.622Z,37.94
2023-05-01T11:12:53.622Z,39.48
2023-05-01T11:13:53.613Z,38.51
2023-05-01T11:14:53.984Z,40.63
2023-05-01T11:15:53.575Z,41.93
2023-05-01T11:16:53.583Z,38.75
2023-05-01T11:17:53.607Z,38.65
2023-05-01T11:18:53.565Z,40.65
2023-05-01T11:19:53.524Z,44.28
2023-05-01T11:20:53.516Z,44.08
2023-05-01T11:21:53.598Z,43.60
2023-05-01T11:22:53.529Z,45.54
2023-05-01T11:23:53.551Z,43.86
2023-05-01T11:24:53.498Z,43.86
2023-05-01T11:25:53.494Z,44.28
2023-05-01T11:26:53.473Z,44.32
2023-05-01T11:27:53.492Z,45.43
2023-05-01T11:28:53.448Z,45.73
2023-05-01T11:29:53.433Z,43.24
2023-05-01T11:30:53.434Z,42.94
2023-05-01T11:31:53.495Z,43.54
2023-05-01T11:32:53.459Z,43.62
2023-05-01T11:33:53.391Z,44.63
2023-05-01T11:34:53.448Z,43.92
2023-05-01T11:35:53.369Z,45.23
2023-05-01T11:36:53.359Z,45.73
2023-05-01T11:37:53.378Z,46.23
2023-05-01T11:38:53.366Z,42.52
2023-05-01T11:39:53.335Z,43.20
2023-05-01T11:40:53.317Z,43.40
2023-05-01T11:41:54.377Z,44.10
2023-05-01T11:42:53.347Z,44.91
2023-05-01T11:43:53.321Z,44.73
2023-05-01T11:44:53.361Z,46.14
2023-05-01T11:45:53.390Z,45.45
2023-05-01T11:46:53.328Z,46.73
2023-05-01T11:47:53.309Z,49.05
2023-05-01T11:48:53.236Z,47.52
2023-05-01T11:49:53.220Z,47.60
2023-05-01T11:50:53.212Z,47.27
2023-05-01T11:51:53.273Z,42.63
2023-05-01T11:52:53.242Z,40.33
2023-05-01T11:53:53.206Z,40.53
2023-05-01T11:54:53.172Z,39.61
2023-05-01T11:55:53.200Z,40.59
2023-05-01T11:56:53.178Z,37.66
2023-05-01T11:57:53.178Z,39.47
2023-05-01T11:58:53.147Z,37.37
2023-05-01T11:59:53.114Z,37.07
2023-05-01T12:00:53.104Z,38.09
2023-05-01T12:01:53.172Z,39.59
2023-05-01T12:02:53.284Z,40.29
2023-05-01T12:03:53.117Z,38.49
2023-05-01T12:04:53.175Z,39.89
2023-05-01T12:05:53.085Z,38.72
2023-05-01T12:06:53.152Z,43.74
2023-05-01T12:07:53.079Z,41.75
2023-05-01T12:08:53.039Z,42.13
2023-05-01T12:09:53.037Z,42.13
2023-05-01T12:10:53.027Z,43.14
2023-05-01T12:11:53.348Z,42.94
2023-05-01T12:12:53.027Z,43.22
2023-05-01T12:13:52.981Z,44.40
2023-05-01T12:14:52.966Z,44.60
2023-05-01T12:15:52.980Z,39.49
2023-05-01T12:16:52.995Z,41.39
2023-05-01T12:17:53.107Z,42.88
2023-05-01T12:18:52.929Z,39.69
2023-05-01T12:19:52.950Z,40.61
2023-05-01T12:20:53.133Z,41.61
2023-05-01T12:21:52.930Z,42.90
2023-05-01T12:22:52.953Z,41.61
2023-05-01T12:23:52.891Z,42.91
2023-05-01T12:24:52.888Z,43.54
2023-05-01T12:25:52.872Z,42.63
2023-05-01T12:26:52.840Z,41.74
2023-05-01T12:27:52.864Z,41.63
2023-05-01T12:28:52.831Z,43.24
2023-05-01T12:29:52.844Z,41.45
2023-05-01T12:30:52.804Z,39.86
2023-05-01T12:31:52.915Z,41.07
2023-05-01T12:32:52.833Z,43.58
2023-05-01T12:33:52.807Z,42.60
2023-05-01T12:34:52.769Z,44.02
2023-05-01T12:35:52.782Z,44.75
2023-05-01T12:36:52.822Z,45.17
2023-05-01T12:37:52.908Z,43.66
2023-05-01T12:38:52.797Z,44.17
2023-05-01T12:39:52.798Z,45.67
2023-05-01T12:40:52.772Z,45.27
2023-05-01T12:41:52.707Z,44.79
2023-05-01T12:42:52.804Z,43.99
2023-05-01T12:43:52.678Z,43.99
2023-05-01T12:44:52.669Z,43.99
2023-05-01T12:45:52.758Z,44.11
2023-05-01T12:46:52.792Z,44.11
2023-05-01T12:47:52.784Z,43.51
2023-05-01T12:48:54.414Z,44.31
2023-05-01T12:49:52.605Z,44.92
2023-05-01T12:50:52.601Z,43.40
2023-05-01T12:51:52.634Z,44.79